sensor_id;sensor_type;location;lat;lon;timestamp;P1;durP1;ratioP1;P2;durP2;ratioP2
7585;SDS011;12459;42.646;23.292;2024-03-02T00:00:31;15.67;;;14.87;;
7585;SDS011;12459;42.646;23.292;2024-03-02T00:45:52;15.70;;;14.90;;
7585;SDS011;12459;42.646;23.292;2024-03-02T01:00:54;14.67;;;13.90;;
7585;SDS011;12459;42.646;23.292;2024-03-02T01:15:57;16.27;;;15.47;;
7585;SDS011;12459;42.646;23.292;2024-03-02T01:30:59;15.63;;;14.83;;
7585;SDS011;12459;42.646;23.292;2024-03-02T01:46:02;16.73;;;15.93;;
7585;SDS011;12459;42.646;23.292;2024-03-02T02:01:04;16.37;;;15.57;;
7585;SDS011;12459;42.646;23.292;2024-03-02T02:16:06;16.20;;;15.40;;
7585;SDS011;12459;42.646;23.292;2024-03-02T02:31:09;16.83;;;16.00;;
7585;SDS011;12459;42.646;23.292;2024-03-02T02:46:11;16.50;;;15.70;;
7585;SDS011;12459;42.646;23.292;2024-03-02T03:01:12;16.80;;;15.97;;
7585;SDS011;12459;42.646;23.292;2024-03-02T03:16:15;17.27;;;16.40;;
7585;SDS011;12459;42.646;23.292;2024-03-02T03:31:17;15.40;;;14.60;;
7585;SDS011;12459;42.646;23.292;2024-03-02T03:46:19;15.70;;;14.90;;
7585;SDS011;12459;42.646;23.292;2024-03-02T04:01:21;15.83;;;15.03;;
7585;SDS011;12459;42.646;23.292;2024-03-02T04:16:24;15.37;;;14.57;;
7585;SDS011;12459;42.646;23.292;2024-03-02T04:31:25;15.07;;;14.27;;
7585;SDS011;12459;42.646;23.292;2024-03-02T04:46:27;13.77;;;13.07;;
7585;SDS011;12459;42.646;23.292;2024-03-02T05:01:30;15.33;;;14.53;;
7585;SDS011;12459;42.646;23.292;2024-03-02T05:16:35;15.87;;;15.07;;
7585;SDS011;12459;42.646;23.292;2024-03-02T05:31:40;15.57;;;14.77;;
7585;SDS011;12459;42.646;23.292;2024-03-02T05:46:41;15.17;;;14.37;;
7585;SDS011;12459;42.646;23.292;2024-03-02T06:01:47;15.00;;;14.20;;
7585;SDS011;12459;42.646;23.292;2024-03-02T06:16:52;16.70;;;15.90;;
7585;SDS011;12459;42.646;23.292;2024-03-02T06:31:53;16.50;;;15.70;;
7585;SDS011;12459;42.646;23.292;2024-03-02T06:46:55;17.73;;;16.83;;
7585;SDS011;12459;42.646;23.292;2024-03-02T07:01:57;16.77;;;15.93;;
7585;SDS011;12459;42.646;23.292;2024-03-02T07:16:59;16.20;;;15.40;;
7585;SDS011;12459;42.646;23.292;2024-03-02T07:32:01;16.47;;;15.67;;
7585;SDS011;12459;42.646;23.292;2024-03-02T07:47:03;16.20;;;15.40;;
7585;SDS011;12459;42.646;23.292;2024-03-02T08:02:05;19.27;;;18.30;;
7585;SDS011;12459;42.646;23.292;2024-03-02T08:17:08;16.70;;;15.90;;
7585;SDS011;12459;42.646;23.292;2024-03-02T08:32:11;18.70;;;17.80;;
7585;SDS011;12459;42.646;23.292;2024-03-02T08:47:12;18.10;;;17.20;;
7585;SDS011;12459;42.646;23.292;2024-03-02T09:02:14;16.93;;;16.07;;
7585;SDS011;12459;42.646;23.292;2024-03-02T09:17:16;19.30;;;18.37;;
7585;SDS011;12459;42.646;23.292;2024-03-02T09:32:18;18.47;;;17.57;;
7585;SDS011;12459;42.646;23.292;2024-03-02T09:47:19;18.73;;;17.83;;
7585;SDS011;12459;42.646;23.292;2024-03-02T10:02:21;17.60;;;16.73;;
7585;SDS011;12459;42.646;23.292;2024-03-02T10:17:23;18.93;;;18.03;;
7585;SDS011;12459;42.646;23.292;2024-03-02T10:32:33;18.27;;;17.37;;
7585;SDS011;12459;42.646;23.292;2024-03-02T10:47:34;22.10;;;21.00;;
7585;SDS011;12459;42.646;23.292;2024-03-02T11:02:37;20.80;;;19.80;;
7585;SDS011;12459;42.646;23.292;2024-03-02T11:17:41;17.70;;;16.80;;
7585;SDS011;12459;42.646;23.292;2024-03-02T11:32:44;18.23;;;17.33;;
7585;SDS011;12459;42.646;23.292;2024-03-02T11:47:57;17.27;;;16.40;;
7585;SDS011;12459;42.646;23.292;2024-03-02T12:03:03;17.77;;;16.87;;
7585;SDS011;12459;42.646;23.292;2024-03-02T12:18:09;17.90;;;17.00;;
7585;SDS011;12459;42.646;23.292;2024-03-02T12:33:11;18.27;;;17.37;;
7585;SDS011;12459;42.646;23.292;2024-03-02T12:48:13;19.33;;;18.40;;
7585;SDS011;12459;42.646;23.292;2024-03-02T13:03:17;18.03;;;17.13;;
7585;SDS011;12459;42.646;23.292;2024-03-02T13:18:21;18.80;;;17.90;;
7585;SDS011;12459;42.646;23.292;2024-03-02T13:33:23;19.43;;;18.47;;
7585;SDS011;12459;42.646;23.292;2024-03-02T13:48:25;19.73;;;18.77;;
7585;SDS011;12459;42.646;23.292;2024-03-02T14:03:27;20.40;;;19.40;;
7585;SDS011;12459;42.646;23.292;2024-03-02T14:18:31;19.33;;;18.37;;
7585;SDS011;12459;42.646;23.292;2024-03-02T14:33:33;19.90;;;18.90;;
7585;SDS011;12459;42.646;23.292;2024-03-02T14:48:36;20.37;;;19.37;;
7585;SDS011;12459;42.646;23.292;2024-03-02T15:03:39;18.60;;;17.70;;
7585;SDS011;12459;42.646;23.292;2024-03-02T15:18:41;18.20;;;17.30;;
7585;SDS011;12459;42.646;23.292;2024-03-02T15:33:43;19.13;;;18.23;;
7585;SDS011;12459;42.646;23.292;2024-03-02T15:48:45;19.37;;;18.40;;
7585;SDS011;12459;42.646;23.292;2024-03-02T16:03:47;17.80;;;16.90;;
7585;SDS011;12459;42.646;23.292;2024-03-02T16:18:52;16.40;;;15.60;;
7585;SDS011;12459;42.646;23.292;2024-03-02T16:33:54;15.33;;;14.53;;
7585;SDS011;12459;42.646;23.292;2024-03-02T16:48:56;17.20;;;16.30;;
7585;SDS011;12459;42.646;23.292;2024-03-02T17:03:58;15.53;;;14.73;;
7585;SDS011;12459;42.646;23.292;2024-03-02T17:19:00;15.70;;;14.90;;
7585;SDS011;12459;42.646;23.292;2024-03-02T17:34:02;15.73;;;14.93;;
7585;SDS011;12459;42.646;23.292;2024-03-02T17:49:03;15.23;;;14.43;;
7585;SDS011;12459;42.646;23.292;2024-03-02T18:04:05;15.43;;;14.63;;
7585;SDS011;12459;42.646;23.292;2024-03-02T18:19:10;14.37;;;13.67;;
7585;SDS011;12459;42.646;23.292;2024-03-02T18:34:12;12.47;;;11.77;;
7585;SDS011;12459;42.646;23.292;2024-03-02T18:49:14;15.13;;;14.37;;
7585;SDS011;12459;42.646;23.292;2024-03-02T19:04:16;13.13;;;12.43;;
7585;SDS011;12459;42.646;23.292;2024-03-02T19:19:18;15.00;;;14.20;;
7585;SDS011;12459;42.646;23.292;2024-03-02T19:34:20;14.20;;;13.50;;
7585;SDS011;12459;42.646;23.292;2024-03-02T19:49:25;14.50;;;13.77;;
7585;SDS011;12459;42.646;23.292;2024-03-02T20:04:27;14.97;;;14.17;;
7585;SDS011;12459;42.646;23.292;2024-03-02T20:19:28;13.77;;;13.07;;
7585;SDS011;12459;42.646;23.292;2024-03-02T20:34:30;13.70;;;13.00;;
7585;SDS011;12459;42.646;23.292;2024-03-02T20:49:32;13.53;;;12.83;;
7585;SDS011;12459;42.646;23.292;2024-03-02T21:04:34;14.40;;;13.70;;
7585;SDS011;12459;42.646;23.292;2024-03-02T21:19:36;14.83;;;14.03;;
7585;SDS011;12459;42.646;23.292;2024-03-02T21:34:37;14.60;;;13.90;;
7585;SDS011;12459;42.646;23.292;2024-03-02T21:49:41;14.20;;;13.50;;
7585;SDS011;12459;42.646;23.292;2024-03-02T22:04:43;13.20;;;12.50;;
7585;SDS011;12459;42.646;23.292;2024-03-02T22:19:45;15.00;;;14.20;;
7585;SDS011;12459;42.646;23.292;2024-03-02T22:34:47;11.70;;;11.10;;
7585;SDS011;12459;42.646;23.292;2024-03-02T22:49:49;12.43;;;11.77;;
7585;SDS011;12459;42.646;23.292;2024-03-02T23:04:55;12.53;;;11.87;;
7585;SDS011;12459;42.646;23.292;2024-03-02T23:19:57;13.57;;;12.87;;
7585;SDS011;12459;42.646;23.292;2024-03-02T23:34:58;11.97;;;11.37;;
7585;SDS011;12459;42.646;23.292;2024-03-02T23:50:01;12.50;;;11.80;;
